Portal, ND (58772)

9:52 AM CST on December 05, 2016 (GMT -0600)
Ely Farms | | Change Station

Elev 1923 ft 48.89 °N, 102.85 °W | Updated 6 seconds ago

Light Snow
Light Snow
19.6 °F
Feels Like 11 °F
N
7.0
Wind Variable Wind from NNW

Today
High -- | Low -- °F
--% Chance of Precip.
Yesterday
High -- | Low -- °F
Precip. -- in
Pressure 29.60 in
Visibility 3.0 miles
Clouds Few 300 ft
Scattered Clouds 1300 ft
Overcast 3600 ft
Windchill 11 °F
Dew Point 17 °F
Humidity 91%
Rainfall 0.00 in
Snow Depth Not available.
8:28 AM 4:53 PM
Waxing Crescent, 32% visible
METAR KD50 051535Z AUTO 33008KT 3SM -SN FEW003 SCT013 OVC036 M07/M07 A2960 RMK AO2 P0005
Pressure 29.60 in
Visibility 3.0 miles
Clouds Few 300 ft
Scattered Clouds 1300 ft
Overcast 3600 ft
Windchill 11 °F
Dew Point 17 °F
Humidity 91%
Rainfall 0.00 in
Snow Depth Not available.
8:28 AM 4:53 PM
Waxing Crescent, 32% visible
METAR KD50 051535Z AUTO 33008KT 3SM -SN FEW003 SCT013 OVC036 M07/M07 A2960 RMK AO2 P0005

10-Day Weather Forecast

Almanac

Astronomy

Dec. 05, 2016 Rise Set
Actual Time
Civil Twilight
Nautical Twilight
Astronomical Twilight
Moon
Length of Visible Light
Length of Day
Tomorrow will be .
, % of the Moon is Illuminated

Today's Extremes

State Highs State Lows

Community

WunderPhotos

Upload Photos

1,955,794 photos uploaded!

WunderBlog® & News

Nearby

Air Quality

  Air Quality AQ Index Pollutant
Not available.

Snow Depth

Station Depth Elevation

Earthquake Activity

City Distance Mag. Time & Date
Minimum magnitude displayed is 2.5.

Coastal Water Temperatures

Place Temperature

Stations

Nearby Weather Stations

Station Location Temp. Windchill Dew Point Humidity Wind Precip. Elev Updated Type
                   

Watches & Warnings

Winter Weather Advisory
Issued: 8:20 AM CST Dec. 5, 2016 – National Weather Service

... Winter Weather Advisory remains in effect until noon CST
Tuesday...

* timing... through noon Tuesday.

* Snowfall... snowfall accumulations between 2 and 5 inches.

* Blowing snow... reduced visibility in blowing and drifting snow.

* Main impact... snow and blowing snow will make travel hazardous.

Precautionary/preparedness actions...

A Winter Weather Advisory for snow means that periods of snow
will cause primarily travel difficulties. Be prepared for snow
covered roads and limited visibilities... and use caution while
driving.



Pja